sensor_id;sensor_type;location;lat;lon;timestamp;P1;durP1;ratioP1;P2;durP2;ratioP2
54945;SDS011;40846;44.788;20.486;2023-05-29T00:00:50;15.45;;;9.88;;
54945;SDS011;40846;44.788;20.486;2023-05-29T00:03:17;25.27;;;10.88;;
54945;SDS011;40846;44.788;20.486;2023-05-29T00:05:43;18.70;;;10.70;;
54945;SDS011;40846;44.788;20.486;2023-05-29T00:08:09;22.15;;;11.25;;
54945;SDS011;40846;44.788;20.486;2023-05-29T00:10:36;18.95;;;12.30;;
54945;SDS011;40846;44.788;20.486;2023-05-29T00:13:03;22.00;;;12.45;;
54945;SDS011;40846;44.788;20.486;2023-05-29T00:15:29;14.63;;;11.32;;
54945;SDS011;40846;44.788;20.486;2023-05-29T00:17:55;16.42;;;11.55;;
54945;SDS011;40846;44.788;20.486;2023-05-29T00:20:21;17.55;;;13.10;;
54945;SDS011;40846;44.788;20.486;2023-05-29T00:22:47;16.33;;;11.50;;
54945;SDS011;40846;44.788;20.486;2023-05-29T00:25:14;15.05;;;11.75;;
54945;SDS011;40846;44.788;20.486;2023-05-29T00:27:41;20.15;;;12.32;;
54945;SDS011;40846;44.788;20.486;2023-05-29T00:30:07;16.55;;;11.43;;
54945;SDS011;40846;44.788;20.486;2023-05-29T00:32:33;18.67;;;10.98;;
54945;SDS011;40846;44.788;20.486;2023-05-29T00:35:00;17.33;;;11.63;;
54945;SDS011;40846;44.788;20.486;2023-05-29T00:37:26;16.73;;;11.07;;
54945;SDS011;40846;44.788;20.486;2023-05-29T00:39:51;18.33;;;11.57;;
54945;SDS011;40846;44.788;20.486;2023-05-29T00:42:17;16.05;;;10.60;;
54945;SDS011;40846;44.788;20.486;2023-05-29T00:44:43;14.93;;;10.27;;
54945;SDS011;40846;44.788;20.486;2023-05-29T00:47:09;15.63;;;10.55;;
54945;SDS011;40846;44.788;20.486;2023-05-29T00:49:36;14.25;;;9.73;;
54945;SDS011;40846;44.788;20.486;2023-05-29T00:52:03;19.88;;;11.40;;
54945;SDS011;40846;44.788;20.486;2023-05-29T00:54:31;16.15;;;10.65;;
54945;SDS011;40846;44.788;20.486;2023-05-29T00:56:58;16.77;;;12.73;;
54945;SDS011;40846;44.788;20.486;2023-05-29T00:59:27;25.52;;;20.55;;
54945;SDS011;40846;44.788;20.486;2023-05-29T01:01:55;30.05;;;21.90;;
54945;SDS011;40846;44.788;20.486;2023-05-29T01:04:22;30.15;;;23.05;;
54945;SDS011;40846;44.788;20.486;2023-05-29T01:06:49;39.85;;;30.25;;
54945;SDS011;40846;44.788;20.486;2023-05-29T01:09:16;62.33;;;51.83;;
54945;SDS011;40846;44.788;20.486;2023-05-29T01:14:09;71.78;;;55.88;;
54945;SDS011;40846;44.788;20.486;2023-05-29T01:16:48;71.13;;;56.53;;
54945;SDS011;40846;44.788;20.486;2023-05-29T01:22:02;59.30;;;41.15;;
54945;SDS011;40846;44.788;20.486;2023-05-29T01:27:00;42.92;;;33.15;;
54945;SDS011;40846;44.788;20.486;2023-05-29T01:29:27;42.08;;;30.80;;
54945;SDS011;40846;44.788;20.486;2023-05-29T01:31:53;47.20;;;33.20;;
54945;SDS011;40846;44.788;20.486;2023-05-29T01:34:20;42.85;;;31.00;;
54945;SDS011;40846;44.788;20.486;2023-05-29T01:36:46;45.58;;;33.22;;
54945;SDS011;40846;44.788;20.486;2023-05-29T01:39:12;44.17;;;30.13;;
54945;SDS011;40846;44.788;20.486;2023-05-29T01:41:39;42.72;;;30.13;;
54945;SDS011;40846;44.788;20.486;2023-05-29T01:44:06;41.00;;;29.13;;
54945;SDS011;40846;44.788;20.486;2023-05-29T01:46:37;47.85;;;29.52;;
54945;SDS011;40846;44.788;20.486;2023-05-29T01:49:03;39.38;;;28.92;;
54945;SDS011;40846;44.788;20.486;2023-05-29T01:51:30;40.50;;;28.85;;
54945;SDS011;40846;44.788;20.486;2023-05-29T01:53:56;38.30;;;25.10;;
54945;SDS011;40846;44.788;20.486;2023-05-29T01:56:24;37.03;;;25.02;;
54945;SDS011;40846;44.788;20.486;2023-05-29T01:58:52;36.10;;;22.65;;
54945;SDS011;40846;44.788;20.486;2023-05-29T02:01:19;35.53;;;22.90;;
54945;SDS011;40846;44.788;20.486;2023-05-29T02:03:45;29.38;;;19.98;;
54945;SDS011;40846;44.788;20.486;2023-05-29T02:06:11;28.48;;;20.98;;
54945;SDS011;40846;44.788;20.486;2023-05-29T02:08:37;31.80;;;22.17;;
54945;SDS011;40846;44.788;20.486;2023-05-29T02:11:03;35.63;;;25.02;;
54945;SDS011;40846;44.788;20.486;2023-05-29T02:13:30;34.00;;;22.75;;
54945;SDS011;40846;44.788;20.486;2023-05-29T02:15:56;32.95;;;20.48;;
54945;SDS011;40846;44.788;20.486;2023-05-29T02:18:22;33.80;;;19.75;;
54945;SDS011;40846;44.788;20.486;2023-05-29T02:20:48;25.63;;;18.25;;
54945;SDS011;40846;44.788;20.486;2023-05-29T02:23:14;25.85;;;17.27;;
54945;SDS011;40846;44.788;20.486;2023-05-29T02:25:40;24.33;;;16.75;;
54945;SDS011;40846;44.788;20.486;2023-05-29T02:28:07;23.73;;;16.05;;
54945;SDS011;40846;44.788;20.486;2023-05-29T02:30:33;22.42;;;15.02;;
54945;SDS011;40846;44.788;20.486;2023-05-29T02:32:59;19.27;;;12.90;;
54945;SDS011;40846;44.788;20.486;2023-05-29T02:35:25;24.85;;;13.48;;
54945;SDS011;40846;44.788;20.486;2023-05-29T02:37:52;21.75;;;12.45;;
54945;SDS011;40846;44.788;20.486;2023-05-29T02:40:18;25.10;;;12.38;;
54945;SDS011;40846;44.788;20.486;2023-05-29T02:42:45;17.50;;;12.55;;
54945;SDS011;40846;44.788;20.486;2023-05-29T02:45:11;21.27;;;11.52;;
54945;SDS011;40846;44.788;20.486;2023-05-29T02:47:38;19.17;;;11.77;;
54945;SDS011;40846;44.788;20.486;2023-05-29T02:50:04;22.50;;;13.07;;
54945;SDS011;40846;44.788;20.486;2023-05-29T02:52:33;18.90;;;12.32;;
54945;SDS011;40846;44.788;20.486;2023-05-29T02:55:01;24.40;;;13.38;;
54945;SDS011;40846;44.788;20.486;2023-05-29T02:57:28;25.55;;;13.57;;
54945;SDS011;40846;44.788;20.486;2023-05-29T02:59:54;21.33;;;13.65;;
54945;SDS011;40846;44.788;20.486;2023-05-29T03:02:20;19.95;;;12.88;;
54945;SDS011;40846;44.788;20.486;2023-05-29T03:04:46;24.30;;;14.05;;
54945;SDS011;40846;44.788;20.486;2023-05-29T03:07:15;21.85;;;14.00;;
54945;SDS011;40846;44.788;20.486;2023-05-29T03:09:41;23.48;;;12.90;;
54945;SDS011;40846;44.788;20.486;2023-05-29T03:12:07;32.58;;;14.27;;
54945;SDS011;40846;44.788;20.486;2023-05-29T03:14:33;20.75;;;13.82;;
54945;SDS011;40846;44.788;20.486;2023-05-29T03:17:01;27.23;;;14.10;;
54945;SDS011;40846;44.788;20.486;2023-05-29T03:19:27;26.00;;;14.93;;
54945;SDS011;40846;44.788;20.486;2023-05-29T03:21:53;25.65;;;14.52;;
54945;SDS011;40846;44.788;20.486;2023-05-29T03:24:20;24.63;;;13.13;;
54945;SDS011;40846;44.788;20.486;2023-05-29T03:26:46;20.98;;;14.30;;
54945;SDS011;40846;44.788;20.486;2023-05-29T03:29:12;22.30;;;13.82;;
54945;SDS011;40846;44.788;20.486;2023-05-29T03:31:38;24.83;;;14.05;;
54945;SDS011;40846;44.788;20.486;2023-05-29T03:34:04;20.95;;;13.23;;
54945;SDS011;40846;44.788;20.486;2023-05-29T03:36:30;20.63;;;13.63;;
54945;SDS011;40846;44.788;20.486;2023-05-29T03:38:57;16.65;;;10.32;;
54945;SDS011;40846;44.788;20.486;2023-05-29T03:41:23;11.63;;;8.00;;
54945;SDS011;40846;44.788;20.486;2023-05-29T03:43:50;10.75;;;8.20;;
54945;SDS011;40846;44.788;20.486;2023-05-29T03:46:16;12.75;;;8.07;;
54945;SDS011;40846;44.788;20.486;2023-05-29T03:48:47;17.33;;;9.15;;
54945;SDS011;40846;44.788;20.486;2023-05-29T03:51:13;13.85;;;7.43;;
54945;SDS011;40846;44.788;20.486;2023-05-29T03:53:40;11.20;;;7.13;;
54945;SDS011;40846;44.788;20.486;2023-05-29T03:56:07;9.68;;;7.07;;
54945;SDS011;40846;44.788;20.486;2023-05-29T03:58:33;9.05;;;6.95;;
54945;SDS011;40846;44.788;20.486;2023-05-29T04:01:01;10.38;;;6.70;;
54945;SDS011;40846;44.788;20.486;2023-05-29T04:03:27;8.75;;;5.78;;
54945;SDS011;40846;44.788;20.486;2023-05-29T04:05:54;8.60;;;6.45;;
54945;SDS011;40846;44.788;20.486;2023-05-29T04:08:20;14.52;;;6.38;;
54945;SDS011;40846;44.788;20.486;2023-05-29T04:10:46;11.30;;;7.28;;
54945;SDS011;40846;44.788;20.486;2023-05-29T04:13:12;12.05;;;6.88;;
54945;SDS011;40846;44.788;20.486;2023-05-29T04:15:38;10.00;;;6.57;;
54945;SDS011;40846;44.788;20.486;2023-05-29T04:18:05;7.72;;;5.97;;
54945;SDS011;40846;44.788;20.486;2023-05-29T04:20:31;12.63;;;7.20;;
54945;SDS011;40846;44.788;20.486;2023-05-29T04:22:57;9.43;;;6.47;;
54945;SDS011;40846;44.788;20.486;2023-05-29T04:25:23;14.20;;;7.13;;
54945;SDS011;40846;44.788;20.486;2023-05-29T04:27:49;13.23;;;6.80;;
54945;SDS011;40846;44.788;20.486;2023-05-29T04:30:15;12.43;;;7.22;;
54945;SDS011;40846;44.788;20.486;2023-05-29T04:32:42;12.57;;;7.15;;
54945;SDS011;40846;44.788;20.486;2023-05-29T04:35:08;11.98;;;6.93;;
54945;SDS011;40846;44.788;20.486;2023-05-29T04:37:34;12.65;;;7.90;;
54945;SDS011;40846;44.788;20.486;2023-05-29T04:40:06;15.60;;;8.57;;
54945;SDS011;40846;44.788;20.486;2023-05-29T04:42:36;11.88;;;8.80;;
54945;SDS011;40846;44.788;20.486;2023-05-29T04:45:03;24.77;;;9.50;;
54945;SDS011;40846;44.788;20.486;2023-05-29T04:47:32;19.35;;;9.50;;
54945;SDS011;40846;44.788;20.486;2023-05-29T04:49:59;15.00;;;7.95;;
54945;SDS011;40846;44.788;20.486;2023-05-29T04:52:26;19.40;;;10.95;;
54945;SDS011;40846;44.788;20.486;2023-05-29T04:54:52;12.55;;;7.65;;
54945;SDS011;40846;44.788;20.486;2023-05-29T04:57:18;10.88;;;7.43;;
54945;SDS011;40846;44.788;20.486;2023-05-29T04:59:44;13.98;;;7.82;;
54945;SDS011;40846;44.788;20.486;2023-05-29T05:02:10;12.70;;;8.60;;
54945;SDS011;40846;44.788;20.486;2023-05-29T05:04:36;15.77;;;8.32;;
54945;SDS011;40846;44.788;20.486;2023-05-29T05:07:04;14.85;;;8.85;;
54945;SDS011;40846;44.788;20.486;2023-05-29T05:09:30;14.88;;;8.65;;
54945;SDS011;40846;44.788;20.486;2023-05-29T05:11:56;16.15;;;8.70;;
54945;SDS011;40846;44.788;20.486;2023-05-29T05:14:22;11.02;;;8.02;;
54945;SDS011;40846;44.788;20.486;2023-05-29T05:16:49;12.40;;;7.35;;
54945;SDS011;40846;44.788;20.486;2023-05-29T05:19:16;14.05;;;7.45;;
54945;SDS011;40846;44.788;20.486;2023-05-29T05:21:42;14.30;;;7.70;;
54945;SDS011;40846;44.788;20.486;2023-05-29T05:24:08;15.10;;;8.13;;
54945;SDS011;40846;44.788;20.486;2023-05-29T05:26:34;14.85;;;7.43;;
54945;SDS011;40846;44.788;20.486;2023-05-29T05:29:00;17.85;;;7.10;;
54945;SDS011;40846;44.788;20.486;2023-05-29T05:31:26;13.52;;;7.82;;
54945;SDS011;40846;44.788;20.486;2023-05-29T05:33:52;9.73;;;7.45;;
54945;SDS011;40846;44.788;20.486;2023-05-29T05:36:18;12.43;;;7.40;;
54945;SDS011;40846;44.788;20.486;2023-05-29T05:38:45;14.80;;;7.38;;
54945;SDS011;40846;44.788;20.486;2023-05-29T05:41:11;10.23;;;6.57;;
54945;SDS011;40846;44.788;20.486;2023-05-29T05:43:37;14.32;;;6.85;;
54945;SDS011;40846;44.788;20.486;2023-05-29T05:46:03;9.85;;;5.85;;
54945;SDS011;40846;44.788;20.486;2023-05-29T05:48:29;11.40;;;6.35;;
54945;SDS011;40846;44.788;20.486;2023-05-29T05:50:55;10.77;;;5.65;;
54945;SDS011;40846;44.788;20.486;2023-05-29T05:53:21;11.23;;;5.95;;
54945;SDS011;40846;44.788;20.486;2023-05-29T05:55:47;14.45;;;6.43;;
54945;SDS011;40846;44.788;20.486;2023-05-29T05:58:13;8.80;;;6.03;;
54945;SDS011;40846;44.788;20.486;2023-05-29T06:00:39;14.90;;;6.05;;
54945;SDS011;40846;44.788;20.486;2023-05-29T06:03:07;9.48;;;6.18;;
54945;SDS011;40846;44.788;20.486;2023-05-29T06:05:33;9.65;;;5.80;;
54945;SDS011;40846;44.788;20.486;2023-05-29T06:08:01;11.30;;;6.22;;
54945;SDS011;40846;44.788;20.486;2023-05-29T06:10:27;10.98;;;6.30;;
54945;SDS011;40846;44.788;20.486;2023-05-29T06:12:53;8.60;;;5.88;;
54945;SDS011;40846;44.788;20.486;2023-05-29T06:15:19;8.18;;;5.50;;
54945;SDS011;40846;44.788;20.486;2023-05-29T06:17:45;10.30;;;6.07;;
54945;SDS011;40846;44.788;20.486;2023-05-29T06:20:11;9.95;;;4.97;;
54945;SDS011;40846;44.788;20.486;2023-05-29T06:22:38;10.20;;;5.25;;
54945;SDS011;40846;44.788;20.486;2023-05-29T06:25:05;8.18;;;4.93;;
54945;SDS011;40846;44.788;20.486;2023-05-29T06:27:31;6.80;;;4.90;;
54945;SDS011;40846;44.788;20.486;2023-05-29T06:29:57;10.07;;;4.95;;
54945;SDS011;40846;44.788;20.486;2023-05-29T06:32:23;10.13;;;5.43;;
54945;SDS011;40846;44.788;20.486;2023-05-29T06:34:49;10.32;;;5.63;;
54945;SDS011;40846;44.788;20.486;2023-05-29T06:37:16;13.30;;;6.68;;
54945;SDS011;40846;44.788;20.486;2023-05-29T06:39:45;8.68;;;5.88;;
54945;SDS011;40846;44.788;20.486;2023-05-29T06:42:11;8.50;;;4.97;;
54945;SDS011;40846;44.788;20.486;2023-05-29T06:44:37;7.03;;;5.03;;
54945;SDS011;40846;44.788;20.486;2023-05-29T06:47:02;7.97;;;5.10;;
54945;SDS011;40846;44.788;20.486;2023-05-29T06:49:29;9.98;;;5.03;;
54945;SDS011;40846;44.788;20.486;2023-05-29T06:51:55;8.45;;;4.80;;
54945;SDS011;40846;44.788;20.486;2023-05-29T06:54:21;13.65;;;5.70;;
54945;SDS011;40846;44.788;20.486;2023-05-29T06:56:47;10.05;;;4.80;;
54945;SDS011;40846;44.788;20.486;2023-05-29T06:59:15;13.07;;;4.80;;
54945;SDS011;40846;44.788;20.486;2023-05-29T07:01:41;10.55;;;5.63;;
54945;SDS011;40846;44.788;20.486;2023-05-29T07:04:07;8.98;;;4.43;;
54945;SDS011;40846;44.788;20.486;2023-05-29T07:06:34;10.10;;;5.60;;
54945;SDS011;40846;44.788;20.486;2023-05-29T07:09:00;9.75;;;4.97;;
54945;SDS011;40846;44.788;20.486;2023-05-29T07:11:26;13.10;;;5.20;;
54945;SDS011;40846;44.788;20.486;2023-05-29T07:13:55;5.88;;;4.45;;
54945;SDS011;40846;44.788;20.486;2023-05-29T07:16:21;14.77;;;5.93;;
54945;SDS011;40846;44.788;20.486;2023-05-29T07:18:47;10.77;;;5.88;;
54945;SDS011;40846;44.788;20.486;2023-05-29T07:21:13;15.65;;;5.30;;
54945;SDS011;40846;44.788;20.486;2023-05-29T07:23:39;11.27;;;4.93;;
54945;SDS011;40846;44.788;20.486;2023-05-29T07:26:05;9.35;;;5.50;;
54945;SDS011;40846;44.788;20.486;2023-05-29T07:28:31;12.98;;;5.53;;
54945;SDS011;40846;44.788;20.486;2023-05-29T07:30:57;11.75;;;6.53;;
54945;SDS011;40846;44.788;20.486;2023-05-29T07:33:23;10.73;;;5.75;;
54945;SDS011;40846;44.788;20.486;2023-05-29T07:35:49;10.10;;;5.57;;
54945;SDS011;40846;44.788;20.486;2023-05-29T07:38:15;12.40;;;5.75;;
54945;SDS011;40846;44.788;20.486;2023-05-29T07:40:41;10.00;;;5.32;;
54945;SDS011;40846;44.788;20.486;2023-05-29T07:43:07;12.43;;;6.68;;
54945;SDS011;40846;44.788;20.486;2023-05-29T07:45:33;10.70;;;5.75;;
54945;SDS011;40846;44.788;20.486;2023-05-29T07:47:59;11.00;;;6.38;;
54945;SDS011;40846;44.788;20.486;2023-05-29T07:50:25;11.23;;;5.88;;
54945;SDS011;40846;44.788;20.486;2023-05-29T07:52:51;15.05;;;6.40;;
54945;SDS011;40846;44.788;20.486;2023-05-29T07:55:18;13.73;;;6.35;;
54945;SDS011;40846;44.788;20.486;2023-05-29T07:57:43;8.65;;;6.10;;
54945;SDS011;40846;44.788;20.486;2023-05-29T08:00:10;24.27;;;6.80;;
54945;SDS011;40846;44.788;20.486;2023-05-29T08:02:38;11.77;;;5.82;;
54945;SDS011;40846;44.788;20.486;2023-05-29T08:05:04;13.68;;;6.28;;
54945;SDS011;40846;44.788;20.486;2023-05-29T08:07:32;10.40;;;6.05;;
54945;SDS011;40846;44.788;20.486;2023-05-29T08:09:58;12.45;;;5.95;;
54945;SDS011;40846;44.788;20.486;2023-05-29T08:12:24;13.45;;;5.93;;
54945;SDS011;40846;44.788;20.486;2023-05-29T08:14:51;10.70;;;6.45;;
54945;SDS011;40846;44.788;20.486;2023-05-29T08:17:17;9.88;;;6.78;;
54945;SDS011;40846;44.788;20.486;2023-05-29T08:19:43;11.68;;;7.05;;
54945;SDS011;40846;44.788;20.486;2023-05-29T08:22:12;17.30;;;6.32;;
54945;SDS011;40846;44.788;20.486;2023-05-29T08:24:40;12.45;;;6.28;;
54945;SDS011;40846;44.788;20.486;2023-05-29T08:27:06;12.15;;;6.72;;
54945;SDS011;40846;44.788;20.486;2023-05-29T08:29:32;13.55;;;6.80;;
54945;SDS011;40846;44.788;20.486;2023-05-29T08:31:59;11.80;;;6.38;;
54945;SDS011;40846;44.788;20.486;2023-05-29T08:34:28;12.23;;;6.22;;
54945;SDS011;40846;44.788;20.486;2023-05-29T08:36:54;8.82;;;6.15;;
54945;SDS011;40846;44.788;20.486;2023-05-29T08:39:20;13.57;;;7.00;;
54945;SDS011;40846;44.788;20.486;2023-05-29T08:44:20;11.80;;;6.93;;
54945;SDS011;40846;44.788;20.486;2023-05-29T08:46:48;15.27;;;6.97;;
54945;SDS011;40846;44.788;20.486;2023-05-29T08:49:16;8.88;;;5.97;;
54945;SDS011;40846;44.788;20.486;2023-05-29T08:51:43;14.63;;;7.45;;
54945;SDS011;40846;44.788;20.486;2023-05-29T08:54:15;12.98;;;6.47;;
54945;SDS011;40846;44.788;20.486;2023-05-29T08:56:41;12.07;;;6.30;;
54945;SDS011;40846;44.788;20.486;2023-05-29T08:59:07;9.77;;;6.55;;
54945;SDS011;40846;44.788;20.486;2023-05-29T09:01:34;11.70;;;6.40;;
54945;SDS011;40846;44.788;20.486;2023-05-29T09:04:01;11.50;;;6.85;;
54945;SDS011;40846;44.788;20.486;2023-05-29T09:06:27;10.82;;;7.05;;
54945;SDS011;40846;44.788;20.486;2023-05-29T09:08:56;11.77;;;6.88;;
54945;SDS011;40846;44.788;20.486;2023-05-29T09:11:29;8.50;;;6.18;;
54945;SDS011;40846;44.788;20.486;2023-05-29T09:14:04;8.93;;;5.88;;
54945;SDS011;40846;44.788;20.486;2023-05-29T09:16:30;12.30;;;5.85;;
54945;SDS011;40846;44.788;20.486;2023-05-29T09:19:06;14.93;;;6.55;;
54945;SDS011;40846;44.788;20.486;2023-05-29T09:21:32;13.40;;;6.30;;
54945;SDS011;40846;44.788;20.486;2023-05-29T09:24:04;8.88;;;5.25;;
54945;SDS011;40846;44.788;20.486;2023-05-29T09:26:31;11.18;;;5.13;;
54945;SDS011;40846;44.788;20.486;2023-05-29T09:28:57;11.63;;;6.13;;
54945;SDS011;40846;44.788;20.486;2023-05-29T09:31:26;11.52;;;6.00;;
54945;SDS011;40846;44.788;20.486;2023-05-29T09:33:55;8.27;;;5.75;;
54945;SDS011;40846;44.788;20.486;2023-05-29T09:36:26;10.57;;;5.75;;
54945;SDS011;40846;44.788;20.486;2023-05-29T09:38:52;11.43;;;5.55;;
54945;SDS011;40846;44.788;20.486;2023-05-29T09:41:21;8.98;;;4.95;;
54945;SDS011;40846;44.788;20.486;2023-05-29T09:43:48;10.77;;;5.25;;
54945;SDS011;40846;44.788;20.486;2023-05-29T09:46:15;8.93;;;5.32;;
54945;SDS011;40846;44.788;20.486;2023-05-29T09:48:42;7.93;;;5.10;;
54945;SDS011;40846;44.788;20.486;2023-05-29T09:51:19;7.38;;;4.63;;
54945;SDS011;40846;44.788;20.486;2023-05-29T09:53:47;6.78;;;3.75;;
54945;SDS011;40846;44.788;20.486;2023-05-29T09:56:13;9.88;;;4.15;;
54945;SDS011;40846;44.788;20.486;2023-05-29T09:58:42;9.35;;;4.30;;
54945;SDS011;40846;44.788;20.486;2023-05-29T10:01:14;5.65;;;3.75;;
54945;SDS011;40846;44.788;20.486;2023-05-29T10:03:41;8.63;;;4.13;;
54945;SDS011;40846;44.788;20.486;2023-05-29T10:06:08;11.27;;;3.78;;
54945;SDS011;40846;44.788;20.486;2023-05-29T10:08:37;9.27;;;4.40;;
54945;SDS011;40846;44.788;20.486;2023-05-29T10:11:03;8.07;;;4.72;;
54945;SDS011;40846;44.788;20.486;2023-05-29T10:13:34;11.75;;;5.30;;
54945;SDS011;40846;44.788;20.486;2023-05-29T10:18:28;9.68;;;5.35;;
54945;SDS011;40846;44.788;20.486;2023-05-29T10:20:57;8.98;;;4.05;;
54945;SDS011;40846;44.788;20.486;2023-05-29T10:23:24;15.75;;;5.15;;
54945;SDS011;40846;44.788;20.486;2023-05-29T10:25:55;5.40;;;3.95;;
54945;SDS011;40846;44.788;20.486;2023-05-29T10:28:32;7.40;;;4.30;;
54945;SDS011;40846;44.788;20.486;2023-05-29T10:31:08;6.50;;;4.38;;
54945;SDS011;40846;44.788;20.486;2023-05-29T10:36:20;10.20;;;4.68;;
54945;SDS011;40846;44.788;20.486;2023-05-29T10:38:49;6.25;;;4.32;;
54945;SDS011;40846;44.788;20.486;2023-05-29T10:43:53;6.90;;;4.40;;
54945;SDS011;40846;44.788;20.486;2023-05-29T10:46:20;11.73;;;4.55;;
54945;SDS011;40846;44.788;20.486;2023-05-29T10:48:52;13.10;;;4.68;;
54945;SDS011;40846;44.788;20.486;2023-05-29T10:51:26;11.75;;;4.50;;
54945;SDS011;40846;44.788;20.486;2023-05-29T10:54:02;7.53;;;4.53;;
54945;SDS011;40846;44.788;20.486;2023-05-29T10:56:31;8.40;;;4.68;;
54945;SDS011;40846;44.788;20.486;2023-05-29T10:58:58;8.35;;;5.07;;
54945;SDS011;40846;44.788;20.486;2023-05-29T11:01:27;9.35;;;4.93;;
54945;SDS011;40846;44.788;20.486;2023-05-29T11:03:54;8.65;;;4.68;;
54945;SDS011;40846;44.788;20.486;2023-05-29T11:06:35;8.10;;;4.88;;
54945;SDS011;40846;44.788;20.486;2023-05-29T11:09:01;13.40;;;5.30;;
54945;SDS011;40846;44.788;20.486;2023-05-29T11:11:33;6.93;;;4.70;;
54945;SDS011;40846;44.788;20.486;2023-05-29T11:14:06;12.25;;;5.05;;
54945;SDS011;40846;44.788;20.486;2023-05-29T11:18:58;7.28;;;4.90;;
54945;SDS011;40846;44.788;20.486;2023-05-29T11:24:12;13.65;;;4.57;;
54945;SDS011;40846;44.788;20.486;2023-05-29T11:26:40;9.25;;;4.72;;
54945;SDS011;40846;44.788;20.486;2023-05-29T11:29:11;5.50;;;4.23;;
54945;SDS011;40846;44.788;20.486;2023-05-29T11:31:38;8.10;;;4.90;;
54945;SDS011;40846;44.788;20.486;2023-05-29T11:34:05;12.75;;;4.75;;
54945;SDS011;40846;44.788;20.486;2023-05-29T11:36:36;9.05;;;5.35;;
54945;SDS011;40846;44.788;20.486;2023-05-29T11:39:03;10.75;;;5.95;;
54945;SDS011;40846;44.788;20.486;2023-05-29T11:41:29;10.60;;;4.90;;
54945;SDS011;40846;44.788;20.486;2023-05-29T11:43:59;8.02;;;4.30;;
54945;SDS011;40846;44.788;20.486;2023-05-29T11:46:30;8.15;;;4.65;;
54945;SDS011;40846;44.788;20.486;2023-05-29T11:48:57;6.22;;;3.72;;
54945;SDS011;40846;44.788;20.486;2023-05-29T11:51:24;7.13;;;4.15;;
54945;SDS011;40846;44.788;20.486;2023-05-29T11:53:50;7.63;;;4.40;;
54945;SDS011;40846;44.788;20.486;2023-05-29T11:56:26;10.82;;;4.07;;
54945;SDS011;40846;44.788;20.486;2023-05-29T11:58:53;9.88;;;3.95;;
54945;SDS011;40846;44.788;20.486;2023-05-29T12:01:24;6.95;;;4.05;;
54945;SDS011;40846;44.788;20.486;2023-05-29T12:03:51;8.93;;;4.95;;
54945;SDS011;40846;44.788;20.486;2023-05-29T12:06:33;6.03;;;4.13;;
54945;SDS011;40846;44.788;20.486;2023-05-29T12:09:00;9.05;;;4.05;;
54945;SDS011;40846;44.788;20.486;2023-05-29T12:11:36;6.50;;;4.47;;
54945;SDS011;40846;44.788;20.486;2023-05-29T12:14:02;10.07;;;4.60;;
54945;SDS011;40846;44.788;20.486;2023-05-29T12:16:28;8.27;;;3.72;;
54945;SDS011;40846;44.788;20.486;2023-05-29T12:18:59;10.88;;;4.30;;
54945;SDS011;40846;44.788;20.486;2023-05-29T12:21:26;6.43;;;4.30;;
54945;SDS011;40846;44.788;20.486;2023-05-29T12:23:55;6.32;;;3.95;;
54945;SDS011;40846;44.788;20.486;2023-05-29T12:26:23;13.25;;;3.90;;
54945;SDS011;40846;44.788;20.486;2023-05-29T12:28:52;7.90;;;2.83;;
54945;SDS011;40846;44.788;20.486;2023-05-29T12:31:28;14.98;;;3.42;;
54945;SDS011;40846;44.788;20.486;2023-05-29T12:33:59;8.48;;;2.92;;
54945;SDS011;40846;44.788;20.486;2023-05-29T12:36:27;8.15;;;2.63;;
54945;SDS011;40846;44.788;20.486;2023-05-29T12:38:53;9.73;;;2.85;;
54945;SDS011;40846;44.788;20.486;2023-05-29T12:41:32;8.77;;;2.10;;
54945;SDS011;40846;44.788;20.486;2023-05-29T12:44:00;8.38;;;4.03;;
54945;SDS011;40846;44.788;20.486;2023-05-29T12:46:27;10.80;;;3.15;;
54945;SDS011;40846;44.788;20.486;2023-05-29T12:48:56;12.57;;;3.42;;
54945;SDS011;40846;44.788;20.486;2023-05-29T12:51:23;5.60;;;3.55;;
54945;SDS011;40846;44.788;20.486;2023-05-29T12:53:51;11.80;;;3.50;;
54945;SDS011;40846;44.788;20.486;2023-05-29T12:56:20;5.03;;;2.90;;
54945;SDS011;40846;44.788;20.486;2023-05-29T12:59:01;9.25;;;3.47;;
54945;SDS011;40846;44.788;20.486;2023-05-29T13:01:27;6.93;;;3.33;;
54945;SDS011;40846;44.788;20.486;2023-05-29T13:03:54;7.95;;;3.17;;
54945;SDS011;40846;44.788;20.486;2023-05-29T13:06:20;5.53;;;2.70;;
54945;SDS011;40846;44.788;20.486;2023-05-29T13:08:46;7.93;;;3.17;;
54945;SDS011;40846;44.788;20.486;2023-05-29T13:11:12;11.00;;;5.90;;
54945;SDS011;40846;44.788;20.486;2023-05-29T13:13:38;8.18;;;3.53;;
54945;SDS011;40846;44.788;20.486;2023-05-29T13:16:04;11.50;;;4.45;;
54945;SDS011;40846;44.788;20.486;2023-05-29T13:18:30;8.13;;;3.42;;
54945;SDS011;40846;44.788;20.486;2023-05-29T13:20:56;8.85;;;3.83;;
54945;SDS011;40846;44.788;20.486;2023-05-29T13:23:22;7.50;;;3.63;;
54945;SDS011;40846;44.788;20.486;2023-05-29T13:25:48;5.72;;;3.17;;
54945;SDS011;40846;44.788;20.486;2023-05-29T13:28:14;7.15;;;2.85;;
54945;SDS011;40846;44.788;20.486;2023-05-29T13:30:41;11.20;;;3.88;;
54945;SDS011;40846;44.788;20.486;2023-05-29T13:33:07;5.80;;;3.22;;
54945;SDS011;40846;44.788;20.486;2023-05-29T13:35:33;5.60;;;2.72;;
54945;SDS011;40846;44.788;20.486;2023-05-29T13:37:59;4.63;;;2.42;;
54945;SDS011;40846;44.788;20.486;2023-05-29T13:40:26;8.77;;;2.42;;
54945;SDS011;40846;44.788;20.486;2023-05-29T13:42:53;3.35;;;2.40;;
54945;SDS011;40846;44.788;20.486;2023-05-29T13:45:19;4.53;;;2.55;;
54945;SDS011;40846;44.788;20.486;2023-05-29T13:47:45;5.10;;;2.75;;
54945;SDS011;40846;44.788;20.486;2023-05-29T13:50:11;7.38;;;2.72;;
54945;SDS011;40846;44.788;20.486;2023-05-29T13:52:44;5.10;;;2.90;;
54945;SDS011;40846;44.788;20.486;2023-05-29T13:55:11;4.32;;;2.80;;
54945;SDS011;40846;44.788;20.486;2023-05-29T13:57:37;4.80;;;2.88;;
54945;SDS011;40846;44.788;20.486;2023-05-29T14:00:04;5.32;;;2.72;;
54945;SDS011;40846;44.788;20.486;2023-05-29T14:02:31;4.97;;;2.78;;
54945;SDS011;40846;44.788;20.486;2023-05-29T14:04:57;4.40;;;3.17;;
54945;SDS011;40846;44.788;20.486;2023-05-29T14:07:23;4.47;;;2.90;;
54945;SDS011;40846;44.788;20.486;2023-05-29T14:09:50;3.88;;;2.67;;
54945;SDS011;40846;44.788;20.486;2023-05-29T14:12:16;9.95;;;3.80;;
54945;SDS011;40846;44.788;20.486;2023-05-29T14:14:42;4.80;;;2.72;;
54945;SDS011;40846;44.788;20.486;2023-05-29T14:17:08;6.43;;;2.95;;
54945;SDS011;40846;44.788;20.486;2023-05-29T14:19:34;7.05;;;2.60;;
54945;SDS011;40846;44.788;20.486;2023-05-29T14:22:00;5.15;;;2.88;;
54945;SDS011;40846;44.788;20.486;2023-05-29T14:24:27;7.15;;;4.28;;
54945;SDS011;40846;44.788;20.486;2023-05-29T14:26:55;8.90;;;3.90;;
54945;SDS011;40846;44.788;20.486;2023-05-29T14:29:21;8.25;;;4.50;;
54945;SDS011;40846;44.788;20.486;2023-05-29T14:31:48;6.95;;;3.75;;
54945;SDS011;40846;44.788;20.486;2023-05-29T14:34:14;9.18;;;3.63;;
54945;SDS011;40846;44.788;20.486;2023-05-29T14:36:40;11.23;;;3.65;;
54945;SDS011;40846;44.788;20.486;2023-05-29T14:39:09;6.13;;;3.38;;
54945;SDS011;40846;44.788;20.486;2023-05-29T14:41:35;7.25;;;3.67;;
54945;SDS011;40846;44.788;20.486;2023-05-29T14:44:01;7.90;;;4.10;;
54945;SDS011;40846;44.788;20.486;2023-05-29T14:46:27;17.95;;;6.10;;